KPIEKSUA

Guest
Details From KPIE - St Petersburg Clearwater Intl
To KSUA - Witham Fld
Flight Number -
Tags Generated
Created
Modified
Stats Distance 138 nm / 256 km
Max Altitude 0 ft / 0 m
Waypoints 2
Social Downloads 4
Likes 0
Share VATSIM

Download

Looking for another format? Having issues loading an existing format? Contact us
Advertisement - Login to hide

Notes

Generated

Route

KPIE KSUA

ID Type Via Altitude Latitude Longitude Leg Dist Tot Dist Heading (true) Name
O KPIE APT - 0 ft / 0 m 27.92118˚ -82.69189˚ - 0 nm - -
O KSUA APT - 0 ft / 0 m 27.18168˚ -80.22902˚ 138 nm 138 nm 108° / 109° -

Altitude Profile

Advertisement - Login to hide

KPIE

Details ICAO KPIE (PIE)
Name ST PETERSBURG CLEARWATER INTL
Region United States
Timezone America/New_York (UTC-5.0)
Stats Elevation 10 ft / 3 m (AMSL)
Location 27.910411° -82.687529°
Runways 4
Magnetic Variation 5.447° W

METAR

KPIE 120953Z AUTO 18006KT 10SM CLR 11/11 A3007 RMK AO2 SLP181 T01110106

Decode

TAF

KPIE 120521Z 1206/1306 VRB03KT P6SM FEW020 FEW250 FM121300 26008KT P6SM FEW020 SCT250 FM121600 27012G17KT P6SM SCT035 BKN250 FM122300 31015G21KT P6SM FEW250 FM130500 35011KT P6SM FEW250

Decode

Departure Runways

ID Width Length Bearing (true) Bearing (mag) Surface Threshold Offset Overrun Length
04 150 ft / 46 m 5,909 ft / 1,801 m 39.58° 45.03° Asphalt 0 ft / 0 m 0 ft / 0 m
09 150 ft / 46 m 5,155 ft / 1,571 m 88.13° 93.58° Asphalt 0 ft / 0 m 0 ft / 0 m
18L 150 ft / 46 m 9,764 ft / 2,976 m 171.35° 176.80° Asphalt 0 ft / 0 m 150 ft / 46 m
18R 75 ft / 23 m 4,014 ft / 1,224 m 171.34° 176.79° Asphalt 0 ft / 0 m 0 ft / 0 m
22 150 ft / 46 m 5,909 ft / 1,801 m 219.58° 225.03° Asphalt 0 ft / 0 m 222 ft / 68 m
27 150 ft / 46 m 5,155 ft / 1,571 m 268.14° 273.59° Asphalt 0 ft / 0 m 0 ft / 0 m
36L 75 ft / 23 m 4,014 ft / 1,224 m 351.34° 356.79° Asphalt 558 ft / 170 m 0 ft / 0 m
36R 150 ft / 46 m 9,764 ft / 2,976 m 351.35° 356.80° Asphalt 930 ft / 283 m 0 ft / 0 m

KSUA

Details ICAO KSUA (SUA)
Name Witham Fld
Region United States
Timezone America/New_York (UTC-5.0)
Stats Elevation 18 ft / 5 m (AMSL)
Location 27.181835° -80.221181°
Runways 3
Magnetic Variation 6.892° W

METAR

KSUA 120955Z AUTO 28004KT 10SM CLR 07/05 A3010 RMK AO2

Decode

TAF

TAF KSUA 120520Z 1206/1306 00000KT P6SM SKC FM121500 26008KT P6SM SCT250 FM121700 27011G19KT P6SM FEW040 BKN250

Decode

Destination Runways

ID Width Length Bearing (true) Bearing (mag) Surface Threshold Offset Overrun Length
07 100 ft / 30 m 4,748 ft / 1,447 m 67.99° 74.88° Asphalt 0 ft / 0 m 0 ft / 0 m
12 100 ft / 30 m 5,834 ft / 1,778 m 110.55° 117.44° Asphalt 449 ft / 137 m 499 ft / 152 m
16 100 ft / 30 m 5,190 ft / 1,582 m 154.40° 161.29° Asphalt 335 ft / 102 m 180 ft / 55 m
25 100 ft / 30 m 4,748 ft / 1,447 m 247.99° 254.88° Asphalt 0 ft / 0 m 151 ft / 46 m
30 100 ft / 30 m 5,834 ft / 1,778 m 290.55° 297.44° Asphalt 0 ft / 0 m 699 ft / 213 m
34 100 ft / 30 m 5,190 ft / 1,582 m 334.40° 341.29° Asphalt 932 ft / 284 m 151 ft / 46 m